Time;durP1;ratioP1;P1;durP2;ratioP2;P2;SDS_P1;SDS_P2;PMS_P1;PMS_P2;Temp;Humidity;BMP_temperature;BMP_pressure;BME280_temperature;BME280_humidity;BME280_pressure;Samples;Min_cycle;Max_cycle;Signal;HPM_P1;HPM_P2
2022/01/23 00:00:41;;;;;;;3.85;1.73;;;5.80;93.60;;;;;;6337024;22;19902;-80
2022/01/23 00:03:13;;;;;;;4.32;2.10;;;5.90;93.60;;;;;;6309042;22;20014;-80
2022/01/23 00:05:42;;;;;;;3.15;1.38;;;5.80;93.60;;;;;;6284639;22;20011;-80
2022/01/23 00:08:09;;;;;;;2.63;1.52;;;5.80;93.60;;;;;;6259147;22;20098;-79
2022/01/23 00:10:35;;;;;;;2.70;1.55;;;5.80;93.70;;;;;;6258311;22;19999;-80
2022/01/23 00:18:21;;;;;;;5.03;2.30;;;5.80;93.70;;;;;;6289747;22;20015;-80
2022/01/23 00:20:49;;;;;;;3.85;1.98;;;5.80;93.70;;;;;;6307785;22;20003;-80
2022/01/23 00:23:28;;;;;;;4.28;2.00;;;5.80;93.70;;;;;;6278320;22;20011;-80
2022/01/23 00:30:18;;;;;;;4.22;2.15;;;5.80;93.70;;;;;;6311761;22;20014;-80
2022/01/23 00:31:17;;;;;;;4.40;1.58;;;5.80;93.70;;;;;;6289646;22;20331;-80
2022/01/23 00:33:42;;;;;;;2.97;1.40;;;5.80;93.70;;;;;;6309572;22;19995;-80
2022/01/23 00:36:08;;;;;;;2.78;1.40;;;5.80;93.70;;;;;;6308723;22;20003;-80
2022/01/23 00:38:34;;;;;;;4.05;1.83;;;5.80;93.70;;;;;;6307793;22;19995;-79
2022/01/23 00:41:00;;;;;;;5.70;2.15;;;5.80;93.70;;;;;;6257355;22;20009;-79
2022/01/23 00:43:29;;;;;;;4.43;2.00;;;5.70;93.70;;;;;;6307607;22;20014;-80
2022/01/23 00:46:08;;;;;;;4.97;2.13;;;5.80;93.70;;;;;;6282578;22;20388;-80
2022/01/23 00:48:38;;;;;;;4.13;2.10;;;5.80;93.70;;;;;;6283315;22;20010;-80
2022/01/23 00:51:04;;;;;;;4.75;2.20;;;5.80;93.70;;;;;;6283816;22;20006;-80
2022/01/23 00:53:30;;;;;;;4.68;1.98;;;5.80;93.70;;;;;;6336312;22;19991;-80
2022/01/23 00:55:55;;;;;;;5.20;2.33;;;5.70;93.70;;;;;;6307295;22;20049;-80
2022/01/23 00:58:21;;;;;;;5.25;2.13;;;5.80;93.70;;;;;;6308855;22;19999;-80
2022/01/23 01:00:47;;;;;;;4.60;1.90;;;5.70;93.70;;;;;;6308684;22;20364;-80
2022/01/23 01:03:13;;;;;;;4.18;2.22;;;5.70;93.70;;;;;;6308581;22;19999;-80
2022/01/23 01:05:39;;;;;;;3.40;1.73;;;5.80;93.70;;;;;;6282807;22;20009;-80
2022/01/23 01:08:06;;;;;;;2.80;1.50;;;5.80;93.70;;;;;;6305046;22;20003;-80
2022/01/23 01:10:40;;;;;;;3.60;1.75;;;5.70;93.70;;;;;;6309244;22;20006;-80
2022/01/23 01:13:10;;;;;;;2.97;1.30;;;5.80;93.80;;;;;;6285016;22;20006;-80
2022/01/23 01:16:34;;;;;;;2.63;1.48;;;5.80;93.70;;;;;;6285045;22;20003;-80
2022/01/23 01:31:51;;;;;;;1.95;1.10;;;5.80;93.70;;;;;;6337185;22;20014;-79
2022/01/23 01:34:24;;;;;;;3.03;1.70;;;5.80;93.70;;;;;;6332128;22;20013;-79
2022/01/23 01:36:52;;;;;;;2.42;1.30;;;5.80;93.70;;;;;;6335674;22;20043;-79
2022/01/23 01:39:24;;;;;;;2.33;1.30;;;5.80;93.70;;;;;;6291675;22;20002;-80
2022/01/23 01:41:51;;;;;;;2.10;1.30;;;5.80;93.70;;;;;;6308412;22;20330;-80
2022/01/23 01:44:17;;;;;;;3.20;1.60;;;5.80;93.70;;;;;;6335959;22;20052;-80
2022/01/23 01:46:43;;;;;;;4.22;2.00;;;5.80;93.70;;;;;;6282538;22;20019;-80
2022/01/23 01:49:09;;;;;;;4.03;1.92;;;5.80;93.70;;;;;;6285756;22;20011;-79
2022/01/23 01:51:36;;;;;;;5.00;2.40;;;5.70;93.70;;;;;;6308288;22;20060;-79
2022/01/23 01:54:11;;;;;;;5.03;2.15;;;5.70;93.80;;;;;;6279266;22;19999;-79
2022/01/23 01:56:48;;;;;;;4.85;2.13;;;5.70;93.70;;;;;;6308883;22;20003;-79
2022/01/23 01:59:23;;;;;;;4.95;2.28;;;5.70;93.70;;;;;;6308271;22;20454;-79
2022/01/23 02:09:59;;;;;;;4.97;2.05;;;5.80;93.80;;;;;;6286446;22;20027;-79
2022/01/23 02:12:57;;;;;;;4.53;1.73;;;5.70;93.70;;;;;;6256769;22;20026;-79
2022/01/23 02:15:39;;;;;;;5.40;2.42;;;5.70;93.70;;;;;;6312600;22;20002;-79
2022/01/23 02:18:19;;;;;;;4.55;2.08;;;5.70;93.70;;;;;;6318778;22;20074;-80
2022/01/23 02:24:01;;;;;;;4.03;2.00;;;5.60;93.70;;;;;;6337190;22;20316;-78
2022/01/23 02:50:41;;;;;;;3.15;1.50;;;5.70;93.80;;;;;;6266755;22;20023;-78
2022/01/23 02:55:54;;;;;;;4.35;1.85;;;5.70;93.80;;;;;;6248206;23;20072;-78
2022/01/23 02:58:22;;;;;;;3.67;1.70;;;5.70;93.80;;;;;;6269096;23;19988;-78
2022/01/23 03:01:03;;;;;;;4.32;1.95;;;5.80;93.90;;;;;;6269073;23;20041;-78
2022/01/23 03:03:29;;;;;;;3.38;1.55;;;5.70;93.90;;;;;;6239673;23;20436;-78
2022/01/23 03:08:56;;;;;;;4.80;2.15;;;5.60;93.80;;;;;;6267621;23;20003;-78
2022/01/23 03:14:20;;;;;;;3.60;1.77;;;5.60;93.80;;;;;;6318137;22;20003;-78
2022/01/23 03:25:04;;;;;;;3.40;1.63;;;5.60;93.80;;;;;;6312785;22;20014;-78
2022/01/23 03:30:21;;;;;;;3.35;1.10;;;5.60;93.90;;;;;;6312040;22;20385;-78
2022/01/23 03:32:49;;;;;;;2.50;1.38;;;5.60;93.80;;;;;;6285449;22;20370;-78
2022/01/23 03:35:18;;;;;;;2.75;1.30;;;5.60;93.80;;;;;;6309011;22;20478;-78
2022/01/23 03:37:44;;;;;;;3.55;1.55;;;5.70;93.90;;;;;;6337143;22;20032;-80
2022/01/23 03:40:11;;;;;;;2.97;1.55;;;5.60;93.80;;;;;;6258330;22;20140;-78
2022/01/23 03:42:41;;;;;;;3.20;1.48;;;5.60;93.80;;;;;;6283643;22;20081;-78
2022/01/23 03:45:34;;;;;;;2.17;1.17;;;5.60;93.80;;;;;;6304343;22;20085;-78
2022/01/23 03:49:30;;;;;;;2.20;1.15;;;5.60;93.80;;;;;;6292257;22;20079;-78
2022/01/23 03:50:41;;;;;;;2.08;1.00;;;5.70;93.80;;;;;;6313447;22;20007;-78
2022/01/23 03:53:07;;;;;;;2.78;1.38;;;5.60;93.80;;;;;;6280629;22;20005;-78
2022/01/23 03:55:34;;;;;;;2.47;1.13;;;5.70;93.80;;;;;;6337235;22;20385;-78
2022/01/23 03:58:00;;;;;;;2.03;1.00;;;5.60;93.80;;;;;;6279770;22;21187;-78
2022/01/23 04:00:26;;;;;;;3.25;1.20;;;5.70;93.90;;;;;;6278743;22;20003;-78
2022/01/23 04:02:52;;;;;;;2.72;1.05;;;5.70;93.90;;;;;;6309413;22;20322;-78
2022/01/23 04:05:18;;;;;;;2.95;1.55;;;5.70;93.90;;;;;;6258145;22;20078;-78
2022/01/23 04:07:45;;;;;;;1.95;1.10;;;5.70;93.80;;;;;;6303606;22;20022;-78
2022/01/23 04:10:13;;;;;;;4.43;1.50;;;5.70;93.80;;;;;;6313737;22;20110;-78
2022/01/23 04:12:58;;;;;;;3.17;1.42;;;5.70;93.80;;;;;;6307361;22;19995;-78
2022/01/23 04:15:35;;;;;;;3.05;1.40;;;5.70;93.80;;;;;;6266112;22;20002;-78
2022/01/23 04:20:49;;;;;;;2.35;1.30;;;5.80;93.80;;;;;;6336715;22;20171;-78
2022/01/23 04:34:17;;;;;;;2.47;1.20;;;5.80;93.80;;;;;;6289928;22;20029;-79
2022/01/23 05:00:54;;;;;;;2.30;1.13;;;5.70;93.90;;;;;;6337540;22;20017;-78
2022/01/23 05:04:04;;;;;;;1.83;0.93;;;5.70;93.80;;;;;;6303539;22;20419;-78
2022/01/23 05:06:09;;;;;;;1.92;1.00;;;5.80;93.80;;;;;;6355625;22;20018;-78
2022/01/23 05:08:38;;;;;;;2.08;1.02;;;5.70;93.80;;;;;;6301428;22;20026;-78
2022/01/23 05:11:08;;;;;;;1.77;1.00;;;5.70;93.80;;;;;;6321942;22;20047;-78
2022/01/23 05:13:34;;;;;;;2.10;1.10;;;5.80;93.80;;;;;;6291424;22;19999;-78
2022/01/23 05:16:00;;;;;;;2.25;1.02;;;5.70;93.80;;;;;;6332730;22;19987;-79
2022/01/23 05:18:25;;;;;;;2.03;1.17;;;5.80;93.90;;;;;;6296906;22;20004;-78
2022/01/23 05:21:02;;;;;;;2.70;1.30;;;5.70;93.80;;;;;;6348786;22;20013;-78
2022/01/23 05:23:28;;;;;;;2.55;1.10;;;5.70;93.80;;;;;;6334378;22;20044;-78
2022/01/23 05:25:53;;;;;;;2.13;1.20;;;5.80;93.80;;;;;;6328358;22;19999;-78
2022/01/23 05:28:19;;;;;;;2.42;1.27;;;5.80;93.80;;;;;;6297946;22;20006;-79
2022/01/23 05:30:45;;;;;;;2.33;1.13;;;5.70;93.80;;;;;;6322336;22;19999;-79
2022/01/23 05:33:10;;;;;;;1.80;1.20;;;5.80;93.80;;;;;;6324462;22;20014;-79
2022/01/23 05:35:36;;;;;;;2.30;1.20;;;5.70;93.80;;;;;;6297790;22;20003;-79
2022/01/23 05:38:02;;;;;;;2.45;1.10;;;5.80;93.80;;;;;;6336955;22;20435;-79
2022/01/23 05:40:29;;;;;;;1.92;1.20;;;5.70;93.80;;;;;;6329195;22;20009;-78
2022/01/23 05:42:55;;;;;;;2.55;1.30;;;5.80;93.80;;;;;;6359687;22;20042;-78
2022/01/23 05:45:21;;;;;;;2.25;1.15;;;5.70;93.80;;;;;;6311620;22;19999;-79
2022/01/23 05:47:47;;;;;;;2.05;1.17;;;5.70;93.80;;;;;;6336960;22;20010;-79
2022/01/23 05:50:13;;;;;;;1.63;1.10;;;5.70;94.10;;;;;;6257477;22;20014;-79
2022/01/23 05:52:38;;;;;;;1.08;0.73;;;5.80;93.90;;;;;;6309025;22;20073;-79
2022/01/23 05:55:05;;;;;;;2.65;1.23;;;5.70;93.90;;;;;;6308824;22;19999;-79
2022/01/23 05:57:31;;;;;;;2.00;1.20;;;5.70;93.90;;;;;;6281011;22;19995;-81
2022/01/23 05:59:57;;;;;;;2.42;1.30;;;5.70;93.90;;;;;;6308810;22;20002;-79
2022/01/23 06:02:22;;;;;;;2.20;1.17;;;5.70;93.90;;;;;;6308294;22;19995;-79
2022/01/23 06:04:48;;;;;;;3.17;1.45;;;5.70;93.90;;;;;;6310306;22;20055;-79
2022/01/23 06:07:14;;;;;;;3.05;1.33;;;5.70;93.90;;;;;;6310674;22;20311;-79
2022/01/23 06:09:41;;;;;;;2.75;1.30;;;5.70;93.90;;;;;;6309849;22;20033;-79
2022/01/23 06:12:07;;;;;;;3.38;1.35;;;5.60;93.90;;;;;;6337651;22;20363;-78
2022/01/23 06:14:33;;;;;;;2.05;1.05;;;5.60;93.90;;;;;;6310749;22;20052;-79
2022/01/23 06:16:59;;;;;;;3.67;1.33;;;5.70;93.90;;;;;;6284051;22;20128;-78
2022/01/23 06:19:25;;;;;;;2.10;1.20;;;5.60;93.90;;;;;;6310822;22;20378;-79
2022/01/23 06:21:51;;;;;;;2.70;1.30;;;5.70;93.90;;;;;;6310320;22;20006;-79
2022/01/23 06:24:26;;;;;;;3.25;1.40;;;5.70;93.90;;;;;;6310597;22;19998;-79
2022/01/23 06:26:57;;;;;;;2.45;1.20;;;5.60;93.90;;;;;;6304395;22;20007;-79
2022/01/23 06:29:24;;;;;;;;;;;5.60;93.90;;;;;;6277586;22;20061;-79
2022/01/23 06:31:53;;;;;;;1.98;1.00;;;5.60;93.90;;;;;;6337388;22;19911;-79
2022/01/23 06:34:19;;;;;;;2.05;1.02;;;5.60;93.90;;;;;;6282510;22;19999;-79
2022/01/23 06:36:49;;;;;;;3.03;1.50;;;5.50;93.90;;;;;;6309624;22;20122;-78
2022/01/23 06:39:15;;;;;;;2.58;1.40;;;5.60;93.90;;;;;;6308619;22;20003;-79
2022/01/23 06:41:41;;;;;;;1.88;1.10;;;5.60;93.90;;;;;;6337776;22;20082;-78
2022/01/23 06:44:07;;;;;;;3.50;1.42;;;5.50;93.90;;;;;;6309604;22;20045;-79
2022/01/23 06:46:33;;;;;;;2.08;1.05;;;5.50;93.90;;;;;;6332030;22;19998;-79
2022/01/23 06:49:00;;;;;;;2.72;1.30;;;5.50;93.90;;;;;;6337046;22;20492;-79
2022/01/23 06:51:25;;;;;;;3.00;1.60;;;5.60;94.00;;;;;;6307409;22;20423;-78
2022/01/23 06:53:52;;;;;;;3.35;1.85;;;5.50;94.00;;;;;;6310648;22;20002;-79
2022/01/23 06:56:18;;;;;;;2.30;1.10;;;5.60;94.00;;;;;;6307040;22;20000;-78
2022/01/23 06:58:43;;;;;;;2.50;1.40;;;5.50;94.00;;;;;;6309613;22;20096;-78
2022/01/23 07:01:10;;;;;;;1.92;0.98;;;5.50;93.90;;;;;;6309921;22;20390;-78
2022/01/23 07:03:37;;;;;;;2.70;1.30;;;5.60;94.00;;;;;;6337704;22;20005;-79
2022/01/23 07:06:03;;;;;;;3.67;1.60;;;5.50;93.90;;;;;;6283178;22;20082;-79
2022/01/23 07:08:29;;;;;;;2.53;1.30;;;5.50;93.90;;;;;;6309977;22;20426;-78
2022/01/23 07:10:58;;;;;;;3.17;1.40;;;5.60;93.90;;;;;;6279347;22;20003;-78
2022/01/23 07:13:25;;;;;;;2.10;1.17;;;5.60;93.90;;;;;;6284053;22;19991;-79
2022/01/23 07:15:51;;;;;;;2.88;1.40;;;5.50;93.90;;;;;;6309400;22;20018;-79
2022/01/23 07:18:18;;;;;;;3.60;1.52;;;5.50;93.90;;;;;;6283744;22;20003;-79
2022/01/23 07:20:45;;;;;;;5.10;1.77;;;5.50;93.90;;;;;;6283963;22;20014;-79
2022/01/23 07:23:11;;;;;;;5.20;1.98;;;5.50;94.00;;;;;;6283577;22;20359;-79
2022/01/23 07:25:37;;;;;;;2.88;1.60;;;5.50;93.90;;;;;;6337677;22;20002;-79
2022/01/23 07:28:05;;;;;;;3.17;1.40;;;5.50;93.90;;;;;;6337357;22;20023;-79
2022/01/23 07:30:38;;;;;;;3.40;1.70;;;5.50;93.90;;;;;;6284330;22;20010;-79
2022/01/23 07:33:04;;;;;;;4.00;1.50;;;5.50;93.90;;;;;;6283739;22;20327;-79
2022/01/23 07:35:30;;;;;;;2.65;1.33;;;5.50;93.90;;;;;;6307355;22;20029;-79
2022/01/23 07:37:55;;;;;;;2.17;1.10;;;5.50;93.90;;;;;;6337442;22;20001;-79
2022/01/23 07:40:21;;;;;;;2.80;1.50;;;5.50;93.90;;;;;;6258023;22;20091;-79
2022/01/23 07:42:47;;;;;;;3.15;1.60;;;5.50;93.90;;;;;;6309933;22;20002;-79
2022/01/23 07:45:13;;;;;;;2.60;1.35;;;5.50;93.90;;;;;;6283868;22;20010;-79
2022/01/23 07:47:39;;;;;;;2.97;1.60;;;5.50;93.90;;;;;;6309348;22;20007;-79
2022/01/23 07:50:07;;;;;;;2.72;1.35;;;5.50;93.90;;;;;;6258105;22;20015;-79
2022/01/23 07:52:36;;;;;;;3.17;1.25;;;5.50;94.00;;;;;;6284166;22;20002;-80
2022/01/23 07:55:07;;;;;;;3.58;1.60;;;5.60;94.00;;;;;;6310525;22;19999;-79
2022/01/23 07:57:34;;;;;;;3.55;1.60;;;5.50;93.90;;;;;;6230790;22;20011;-79
2022/01/23 08:00:00;;;;;;;2.75;1.33;;;5.50;93.90;;;;;;6278007;22;20086;-79
2022/01/23 08:02:26;;;;;;;4.30;2.00;;;5.50;93.90;;;;;;6309066;22;20007;-79
2022/01/23 08:04:52;;;;;;;2.38;1.40;;;5.50;94.00;;;;;;6337571;22;20006;-79
2022/01/23 08:07:30;;;;;;;2.78;1.48;;;5.60;94.00;;;;;;6337771;22;20003;-79
2022/01/23 08:10:03;;;;;;;2.63;1.25;;;5.60;94.00;;;;;;6336967;22;20011;-79
2022/01/23 08:12:30;;;;;;;2.95;1.35;;;5.60;93.90;;;;;;6309250;22;20006;-79
2022/01/23 08:14:57;;;;;;;4.03;1.30;;;5.60;93.90;;;;;;6337468;22;19995;-79
2022/01/23 08:17:24;;;;;;;3.28;1.42;;;5.60;93.90;;;;;;6337122;22;19999;-79
2022/01/23 08:19:53;;;;;;;2.35;1.20;;;5.60;93.90;;;;;;6331889;22;20085;-78
2022/01/23 08:22:21;;;;;;;4.10;1.92;;;5.60;93.90;;;;;;6307587;22;20004;-78
2022/01/23 08:24:47;;;;;;;3.63;1.70;;;5.70;93.90;;;;;;6309410;22;20025;-77
2022/01/23 08:27:13;;;;;;;3.28;1.58;;;5.70;93.90;;;;;;6336785;22;20010;-77
2022/01/23 08:29:39;;;;;;;2.85;1.50;;;5.60;93.90;;;;;;6337340;22;20017;-78
2022/01/23 08:32:05;;;;;;;2.50;1.20;;;5.70;93.90;;;;;;6256949;22;20031;-78
2022/01/23 08:34:31;;;;;;;3.42;1.60;;;5.70;93.90;;;;;;6283950;22;19999;-78
2022/01/23 08:36:57;;;;;;;2.80;1.38;;;5.70;93.90;;;;;;6337391;22;20005;-78
2022/01/23 08:39:25;;;;;;;6.10;2.25;;;5.80;93.90;;;;;;6283174;22;19999;-78
2022/01/23 08:41:51;;;;;;;5.28;1.88;;;5.80;93.90;;;;;;6309722;22;20003;-78
2022/01/23 08:44:22;;;;;;;4.45;1.90;;;5.80;94.10;;;;;;6337358;22;20010;-78
2022/01/23 08:46:49;;;;;;;2.20;1.40;;;5.90;93.80;;;;;;6306571;22;20010;-78
2022/01/23 08:49:17;;;;;;;2.35;1.42;;;5.80;93.80;;;;;;6283110;22;20434;-78
2022/01/23 08:51:44;;;;;;;3.03;1.60;;;5.90;93.80;;;;;;6310128;22;20010;-78
2022/01/23 08:54:10;;;;;;;3.60;1.80;;;5.90;93.80;;;;;;6337186;22;19994;-78
2022/01/23 08:56:35;;;;;;;4.28;1.83;;;5.90;93.80;;;;;;6283145;22;20003;-78
2022/01/23 08:59:01;;;;;;;3.17;1.50;;;5.90;93.80;;;;;;6283451;22;20006;-78
2022/01/23 09:01:28;;;;;;;3.95;1.98;;;6.10;93.80;;;;;;6307795;22;20011;-78
2022/01/23 09:03:54;;;;;;;2.42;1.20;;;6.00;93.80;;;;;;6309861;22;20019;-80
2022/01/23 09:06:20;;;;;;;3.30;1.40;;;6.10;93.80;;;;;;6309945;22;20081;-79
2022/01/23 09:08:46;;;;;;;3.85;1.52;;;6.10;93.80;;;;;;6309779;22;20038;-79
2022/01/23 09:11:25;;;;;;;2.53;1.25;;;6.10;93.80;;;;;;6283455;22;19995;-79
2022/01/23 09:14:06;;;;;;;3.42;1.50;;;6.10;93.70;;;;;;6286563;22;19997;-79
2022/01/23 09:16:34;;;;;;;3.35;1.30;;;6.20;93.80;;;;;;6312848;22;20438;-80
2022/01/23 09:19:00;;;;;;;2.67;1.20;;;6.20;93.80;;;;;;6310551;22;20343;-79
2022/01/23 09:21:26;;;;;;;3.10;1.25;;;6.20;93.70;;;;;;6337458;22;20045;-79
2022/01/23 09:23:51;;;;;;;2.00;1.25;;;6.20;93.70;;;;;;6309125;22;20423;-79
2022/01/23 09:26:21;;;;;;;2.95;1.30;;;6.20;93.80;;;;;;6336748;22;20010;-79
2022/01/23 09:28:47;;;;;;;2.15;1.08;;;6.20;93.80;;;;;;6309282;22;20440;-79
2022/01/23 09:31:21;;;;;;;2.08;1.27;;;6.20;93.80;;;;;;6338353;22;19999;-79
2022/01/23 09:33:47;;;;;;;1.77;0.95;;;6.30;93.80;;;;;;6310596;22;20081;-80
2022/01/23 09:36:14;;;;;;;2.40;1.10;;;6.30;93.80;;;;;;6279489;22;20023;-79
2022/01/23 09:38:40;;;;;;;2.65;1.30;;;6.40;93.80;;;;;;6309283;22;20031;-79
2022/01/23 09:41:06;;;;;;;2.33;1.10;;;6.40;93.70;;;;;;6284364;22;20003;-80
2022/01/23 09:43:32;;;;;;;1.90;1.00;;;6.40;93.70;;;;;;6284970;22;19999;-79
2022/01/23 09:46:05;;;;;;;2.58;1.40;;;6.40;93.70;;;;;;6310324;22;20420;-79
2022/01/23 09:48:32;;;;;;;2.38;1.20;;;6.50;93.70;;;;;;6283999;22;20011;-79
2022/01/23 09:51:00;;;;;;;1.83;0.95;;;6.40;93.70;;;;;;6337817;22;20076;-80
2022/01/23 09:53:27;;;;;;;1.95;1.10;;;6.50;93.70;;;;;;6337968;22;20322;-80
2022/01/23 09:55:58;;;;;;;3.80;1.60;;;6.50;93.70;;;;;;6284618;22;20006;-80
2022/01/23 09:58:25;;;;;;;3.50;1.58;;;6.50;93.90;;;;;;6286619;22;20010;-80
2022/01/23 10:00:51;;;;;;;2.85;1.17;;;6.50;93.70;;;;;;6258766;22;20006;-80
2022/01/23 10:03:19;;;;;;;2.13;1.17;;;6.60;93.70;;;;;;6310168;22;20007;-80
2022/01/23 10:05:49;;;;;;;4.03;1.80;;;6.60;93.70;;;;;;6307919;22;20082;-80
2022/01/23 10:08:16;;;;;;;3.55;1.60;;;6.60;93.60;;;;;;6307905;22;20034;-80
2022/01/23 10:10:42;;;;;;;2.13;1.30;;;6.60;93.60;;;;;;6337864;22;20461;-80
2022/01/23 10:13:09;;;;;;;2.47;1.38;;;6.50;93.60;;;;;;6284299;22;19999;-80
2022/01/23 10:15:35;;;;;;;1.95;1.10;;;6.60;93.70;;;;;;6259545;22;19999;-80
2022/01/23 10:18:02;;;;;;;2.92;1.58;;;6.60;93.70;;;;;;6310082;22;20461;-80
2022/01/23 10:20:28;;;;;;;1.80;1.02;;;6.70;93.70;;;;;;6310350;22;20006;-80
2022/01/23 10:22:55;;;;;;;2.13;1.20;;;6.70;93.70;;;;;;6310727;22;20086;-80
2022/01/23 10:25:25;;;;;;;3.47;1.65;;;6.70;93.70;;;;;;6338160;22;20003;-79
2022/01/23 10:28:04;;;;;;;2.35;1.27;;;6.80;93.70;;;;;;6310928;22;19998;-79
2022/01/23 10:30:39;;;;;;;1.95;1.17;;;6.80;93.70;;;;;;6286489;22;20011;-80
2022/01/23 10:33:19;;;;;;;2.20;1.20;;;6.80;93.60;;;;;;6284993;22;20427;-80
2022/01/23 10:36:02;;;;;;;2.38;1.13;;;6.90;93.60;;;;;;6306803;22;20003;-81
2022/01/23 10:38:32;;;;;;;3.15;1.38;;;6.90;93.60;;;;;;6309504;22;20308;-83
2022/01/23 10:41:08;;;;;;;2.95;1.05;;;6.90;93.60;;;;;;6281272;22;20003;-81
2022/01/23 10:48:53;;;;;;;2.33;1.30;;;7.00;93.60;;;;;;6312644;22;20026;-81
2022/01/23 10:51:36;;;;;;;2.33;1.10;;;7.00;93.50;;;;;;6285210;22;20927;-82
2022/01/23 10:54:07;;;;;;;2.20;1.13;;;7.00;93.60;;;;;;6331203;22;20002;-82
2022/01/23 10:56:39;;;;;;;2.08;1.20;;;7.10;93.60;;;;;;6282504;22;20053;-82
2022/01/23 10:59:10;;;;;;;2.80;1.38;;;7.10;93.50;;;;;;6337883;22;20007;-82
2022/01/23 11:01:37;;;;;;;2.13;1.15;;;7.10;93.50;;;;;;6282719;22;20505;-83
2022/01/23 11:04:05;;;;;;;2.75;1.20;;;7.20;93.60;;;;;;6281744;22;20010;-82
2022/01/23 11:06:31;;;;;;;1.60;1.00;;;7.20;93.50;;;;;;6308256;22;20053;-82
2022/01/23 11:09:09;;;;;;;2.80;1.40;;;7.30;93.50;;;;;;6310519;22;20019;-83
2022/01/23 11:11:46;;;;;;;2.10;1.10;;;7.30;93.50;;;;;;6338011;22;19995;-82
2022/01/23 11:19:40;;;;;;;1.85;0.90;;;7.40;93.40;;;;;;6313278;22;20011;-82
2022/01/23 11:22:06;;;;;;;;;;;7.50;93.40;;;;;;6287157;22;19999;-81
2022/01/23 11:24:37;;;;;;;0.50;0.47;;;7.40;93.30;;;;;;6309671;22;19902;-81
2022/01/23 11:27:04;;;;;;;1.30;0.80;;;7.60;93.40;;;;;;6282541;22;20489;-82
2022/01/23 11:29:31;;;;;;;0.63;0.40;;;7.50;93.30;;;;;;6284164;22;20018;-82
2022/01/23 11:31:58;;;;;;;1.75;0.75;;;7.60;93.30;;;;;;6337696;22;19991;-80
2022/01/23 11:34:28;;;;;;;1.27;0.80;;;7.60;93.30;;;;;;6258958;22;20339;-81
2022/01/23 11:36:54;;;;;;;0.60;0.40;;;7.60;93.20;;;;;;6337246;22;19995;-82
2022/01/23 11:39:37;;;;;;;0.57;0.45;;;7.60;93.20;;;;;;6307286;22;20018;-82
2022/01/23 11:53:51;;;;;;;0.32;0.30;;;7.80;93.10;;;;;;6314020;22;20010;-81
2022/01/23 11:56:36;;;;;;;0.30;0.30;;;7.80;93.10;;;;;;6310170;22;20018;-82
2022/01/23 11:59:26;;;;;;;0.55;0.30;;;7.80;93.10;;;;;;6307424;22;20111;-82
2022/01/23 12:02:20;;;;;;;0.30;0.20;;;7.90;93.10;;;;;;6278550;22;20011;-82
2022/01/23 12:05:20;;;;;;;0.17;0.10;;;7.90;93.10;;;;;;6309963;22;19998;-82
2022/01/23 12:08:16;;;;;;;0.35;0.20;;;7.90;93.00;;;;;;6307012;22;20082;-82
2022/01/23 12:11:04;;;;;;;0.30;0.20;;;7.90;93.10;;;;;;6307197;22;20019;-79
2022/01/23 12:16:34;;;;;;;0.40;0.20;;;7.80;93.00;;;;;;6310048;22;20078;-81
2022/01/23 12:19:18;;;;;;;0.30;0.20;;;7.90;93.30;;;;;;6313524;22;20426;-82
2022/01/23 12:21:45;;;;;;;0.10;0.10;;;8.00;93.00;;;;;;6281703;22;20078;-81
2022/01/23 12:24:15;;;;;;;0.10;0.10;;;7.80;93.00;;;;;;6309579;22;20089;-82
2022/01/23 12:26:42;;;;;;;0.30;0.30;;;7.80;93.00;;;;;;6309946;22;20437;-78
2022/01/23 12:29:12;;;;;;;0.10;0.10;;;7.80;92.90;;;;;;6283725;22;20011;-81
2022/01/23 12:31:38;;;;;;;0.10;0.10;;;7.80;92.90;;;;;;6336813;22;20026;-80
2022/01/23 12:34:04;;;;;;;0.10;0.10;;;7.90;93.00;;;;;;6309167;22;20006;-81
2022/01/23 12:36:32;;;;;;;0.32;0.20;;;7.90;92.90;;;;;;6309448;22;20453;-81
2022/01/23 12:39:17;;;;;;;0.10;0.10;;;8.00;92.90;;;;;;6276241;22;20423;-79
2022/01/23 12:42:02;;;;;;;0.20;0.20;;;8.00;92.90;;;;;;6309926;22;20049;-79
2022/01/23 12:44:34;;;;;;;0.30;0.13;;;8.00;92.80;;;;;;6309490;22;20003;-80
2022/01/23 12:47:02;;;;;;;0.05;0.05;;;8.00;92.80;;;;;;6309318;22;20002;-80
2022/01/23 12:49:30;;;;;;;0.00;0.00;;;7.90;92.70;;;;;;6309844;22;20011;-79
2022/01/23 12:52:16;;;;;;;0.00;0.00;;;8.00;92.80;;;;;;6336873;22;20022;-79
2022/01/23 12:54:53;;;;;;;0.10;0.10;;;8.00;92.80;;;;;;6283624;22;19995;-78
2022/01/23 12:57:24;;;;;;;0.00;0.00;;;7.90;92.80;;;;;;6309359;22;19999;-79
2022/01/23 12:59:54;;;;;;;0.00;0.00;;;8.00;92.80;;;;;;6310866;22;20010;-79
2022/01/23 13:02:23;;;;;;;0.00;0.00;;;8.00;92.70;;;;;;6281332;22;20006;-79
2022/01/23 13:04:50;;;;;;;0.10;0.10;;;8.00;92.70;;;;;;6306888;22;20006;-79
2022/01/23 13:07:26;;;;;;;0.05;0.05;;;8.00;92.70;;;;;;6309506;22;19999;-78
2022/01/23 13:09:59;;;;;;;0.30;0.10;;;8.00;92.70;;;;;;6309734;22;20010;-79
2022/01/23 13:12:42;;;;;;;0.03;0.00;;;8.10;92.70;;;;;;6337291;22;19999;-79
2022/01/23 13:15:23;;;;;;;0.20;0.10;;;8.00;92.60;;;;;;6312712;22;20074;-79
2022/01/23 13:18:04;;;;;;;0.00;0.00;;;8.10;92.60;;;;;;6263458;22;20082;-79
2022/01/23 13:29:53;;;;;;;0.00;0.00;;;7.90;92.60;;;;;;6313064;22;20018;-79
2022/01/23 13:31:52;;;;;;;0.00;0.00;;;7.90;92.60;;;;;;6314476;22;20081;-78
2022/01/23 13:34:42;;;;;;;0.20;0.20;;;7.90;92.50;;;;;;6308871;22;20005;-78
2022/01/23 13:37:11;;;;;;;0.88;0.10;;;7.80;92.50;;;;;;6313563;22;20006;-78
2022/01/23 13:39:44;;;;;;;0.15;0.10;;;7.90;92.60;;;;;;6308920;22;20006;-77
2022/01/23 13:42:33;;;;;;;0.38;0.10;;;7.90;92.50;;;;;;6308042;22;20090;-77
2022/01/23 13:48:21;;;;;;;0.40;0.20;;;7.80;92.40;;;;;;6335242;22;20038;-80
2022/01/23 14:02:15;;;;;;;0.10;0.00;;;7.80;92.30;;;;;;6312910;22;20061;-78
2022/01/23 14:04:48;;;;;;;0.00;0.00;;;7.80;92.30;;;;;;6336256;22;20099;-79
2022/01/23 14:07:19;;;;;;;0.00;0.00;;;7.90;92.40;;;;;;6310088;22;20009;-79
2022/01/23 14:09:46;;;;;;;0.20;0.10;;;7.70;92.30;;;;;;6283005;22;20367;-78
2022/01/23 14:12:15;;;;;;;0.00;0.00;;;7.70;92.30;;;;;;6282819;22;20037;-79
2022/01/23 14:14:54;;;;;;;0.10;0.10;;;7.70;92.30;;;;;;6283521;22;19995;-79
2022/01/23 14:17:21;;;;;;;0.10;0.10;;;7.70;92.30;;;;;;6284283;22;20006;-78
2022/01/23 14:20:06;;;;;;;0.10;0.10;;;7.70;92.30;;;;;;6310130;22;20007;-78
2022/01/23 14:22:35;;;;;;;0.10;0.10;;;7.80;92.30;;;;;;6338384;22;20007;-79
2022/01/23 14:25:15;;;;;;;0.20;0.20;;;7.70;92.30;;;;;;6259279;22;20003;-79
2022/01/23 14:27:45;;;;;;;0.88;0.13;;;7.70;92.50;;;;;;6277980;22;20300;-79
2022/01/23 14:30:15;;;;;;;0.03;0.03;;;7.70;92.20;;;;;;6256990;22;20088;-79
2022/01/23 14:32:49;;;;;;;0.03;0.03;;;7.70;92.20;;;;;;6280403;22;20362;-79
2022/01/23 14:35:20;;;;;;;0.32;0.08;;;7.70;92.20;;;;;;6307345;22;20006;-79
2022/01/23 14:37:48;;;;;;;0.17;0.10;;;7.70;92.10;;;;;;6281959;22;19996;-79
2022/01/23 14:40:20;;;;;;;0.30;0.13;;;7.70;92.10;;;;;;6283828;22;20041;-79
2022/01/23 14:43:08;;;;;;;0.08;0.08;;;7.70;92.10;;;;;;6337688;22;20003;-79
2022/01/23 14:45:40;;;;;;;0.00;0.00;;;7.80;92.20;;;;;;6337402;22;20026;-79
2022/01/23 14:48:07;;;;;;;0.10;0.10;;;7.70;92.10;;;;;;6283882;22;20437;-80
2022/01/23 14:50:37;;;;;;;0.20;0.10;;;7.60;92.10;;;;;;6337078;22;20068;-80
2022/01/23 14:53:08;;;;;;;0.08;0.08;;;7.70;92.10;;;;;;6310268;22;20033;-80
2022/01/23 14:55:34;;;;;;;0.20;0.10;;;7.60;92.10;;;;;;6284733;22;20083;-74
2022/01/23 14:58:01;;;;;;;0.10;0.10;;;7.60;92.10;;;;;;6337924;22;20003;-74
2022/01/23 15:00:30;;;;;;;0.00;0.00;;;7.60;92.10;;;;;;6307388;22;20009;-74
2022/01/23 15:02:56;;;;;;;0.10;0.10;;;7.60;92.10;;;;;;6337136;22;19999;-74
2022/01/23 15:05:22;;;;;;;0.20;0.10;;;7.70;92.10;;;;;;6283890;22;20025;-74
2022/01/23 15:07:48;;;;;;;0.00;0.00;;;7.70;92.10;;;;;;6337890;22;20002;-76
2022/01/23 15:10:14;;;;;;;0.10;0.10;;;7.60;92.00;;;;;;6337075;22;20018;-75
2022/01/23 15:12:40;;;;;;;0.05;0.05;;;7.60;92.00;;;;;;6338098;22;19999;-77
2022/01/23 15:15:07;;;;;;;0.28;0.15;;;7.60;92.00;;;;;;6337697;22;20091;-76
2022/01/23 15:17:33;;;;;;;0.32;0.15;;;7.70;92.10;;;;;;6337127;22;20078;-75
2022/01/23 15:19:59;;;;;;;0.20;0.10;;;7.60;92.00;;;;;;6322016;22;20007;-75
2022/01/23 15:22:25;;;;;;;0.17;0.10;;;7.60;92.00;;;;;;6313510;22;20085;-76
2022/01/23 15:24:51;;;;;;;0.10;0.10;;;7.60;92.00;;;;;;6309672;22;20363;-75
2022/01/23 15:27:17;;;;;;;0.17;0.10;;;7.60;92.00;;;;;;6309172;22;20002;-76
2022/01/23 15:29:44;;;;;;;0.10;0.10;;;7.60;92.00;;;;;;6336876;22;20010;-75
2022/01/23 15:32:09;;;;;;;0.10;0.10;;;7.50;92.00;;;;;;6336981;22;19998;-76
2022/01/23 15:34:36;;;;;;;0.17;0.10;;;7.50;92.00;;;;;;6337302;22;20436;-75
2022/01/23 15:37:03;;;;;;;0.10;0.10;;;7.50;92.00;;;;;;6336975;22;20007;-76
2022/01/23 15:39:30;;;;;;;0.10;0.10;;;7.50;92.10;;;;;;6337083;22;20006;-76
2022/01/23 15:41:56;;;;;;;0.10;0.10;;;7.50;92.10;;;;;;6332364;22;19999;-76
2022/01/23 15:44:23;;;;;;;0.00;0.00;;;7.40;92.10;;;;;;6296949;22;20003;-76
2022/01/23 15:46:50;;;;;;;0.20;0.10;;;7.40;92.10;;;;;;6283534;22;20299;-76
2022/01/23 15:49:17;;;;;;;0.20;0.13;;;7.40;92.10;;;;;;6283977;22;20014;-75
2022/01/23 15:51:47;;;;;;;0.05;0.00;;;7.40;92.10;;;;;;6309318;22;20303;-75
2022/01/23 15:54:15;;;;;;;0.03;0.03;;;7.40;92.10;;;;;;6336997;22;19995;-75